Time;durP1;ratioP1;P1;durP2;ratioP2;P2;SDS_P1;SDS_P2;PMS_P1;PMS_P2;Temp;Humidity;BMP_temperature;BMP_pressure;BME280_temperature;BME280_humidity;BME280_pressure;Samples;Min_cycle;Max_cycle;Signal;HPM_P1;HPM_P2
2022/09/18 00:03:27;;;;;;;;;;;;;;;5.27;100.00;96347.56;10377516;28;96865;-61
2022/09/18 00:08:30;;;;;;;;;;;;;;;5.23;100.00;96346.13;10402225;28;97021;-60
2022/09/18 00:13:32;;;;;;;;;;;;;;;5.21;100.00;96349.78;10363222;28;97153;-61
2022/09/18 00:18:36;;;;;;;;;;;;;;;5.11;100.00;96331.50;10373526;28;96774;-60
2022/09/18 00:23:39;;;;;;;;;;;;;;;5.03;100.00;96338.97;10403293;28;96814;-61
2022/09/18 00:28:42;;;;;;;;;;;;;;;4.99;100.00;96342.72;10415764;27;97951;-59
2022/09/18 00:33:46;;;;;;;;;;;;;;;5.06;100.00;96339.59;10399179;28;96913;-60
2022/09/18 00:38:49;;;;;;;;;;;;;;;5.02;100.00;96325.22;10399519;28;96691;-60
2022/09/18 00:43:52;;;;;;;;;;;;;;;4.96;100.00;96323.91;10387185;28;96801;-60
2022/09/18 00:49:02;;;;;;;;;;;;;;;4.88;100.00;96323.63;10387245;28;96993;-59
2022/09/18 00:54:08;;;;;;;;;;;;;;;4.89;100.00;96337.38;10388122;28;98253;-60
2022/09/18 00:59:12;;;;;;;;;;;;;;;4.84;100.00;96329.97;10398190;28;97059;-60
2022/09/18 01:04:16;;;;;;;;;;;;;;;4.82;100.00;96339.59;10390016;28;96790;-60
2022/09/18 01:09:22;;;;;;;;;;;;;;;4.72;100.00;96341.19;10385383;28;96813;-60
2022/09/18 01:14:32;;;;;;;;;;;;;;;4.58;100.00;96330.06;10373224;28;96877;-59
2022/09/18 01:19:52;;;;;;;;;;;;;;;4.56;100.00;96338.88;10344923;28;97020;-60
2022/09/18 01:25:04;;;;;;;;;;;;;;;4.54;100.00;96332.97;10337524;28;96695;-59
2022/09/18 01:30:09;;;;;;;;;;;;;;;4.45;100.00;96331.03;10337823;28;96830;-59
2022/09/18 01:35:16;;;;;;;;;;;;;;;4.31;100.00;96332.00;10336839;28;96728;-59
2022/09/18 01:40:41;;;;;;;;;;;;;;;4.26;100.00;96340.06;10337885;28;96741;-59
2022/09/18 01:45:46;;;;;;;;;;;;;;;4.28;100.00;96339.94;10354884;28;96781;-59
2022/09/18 01:50:53;;;;;;;;;;;;;;;4.41;100.00;96337.34;10379390;28;96700;-59
2022/09/18 01:55:59;;;;;;;;;;;;;;;4.40;100.00;96326.16;10376406;28;96811;-59
2022/09/18 02:01:05;;;;;;;;;;;;;;;4.27;100.00;96330.56;10341339;28;96932;-59
2022/09/18 02:06:09;;;;;;;;;;;;;;;4.24;100.00;96341.09;10335657;28;97060;-59
2022/09/18 02:11:13;;;;;;;;;;;;;;;4.19;100.00;96334.50;10360863;28;96835;-59
2022/09/18 02:16:19;;;;;;;;;;;;;;;4.18;100.00;96332.84;10352741;28;96774;-59
2022/09/18 02:21:24;;;;;;;;;;;;;;;4.20;100.00;96335.31;10336093;28;96789;-59
2022/09/18 02:26:26;;;;;;;;;;;;;;;4.17;100.00;96331.19;10335159;28;97244;-59
2022/09/18 02:31:30;;;;;;;;;;;;;;;4.09;100.00;96330.91;10335516;28;96928;-59
2022/09/18 02:36:51;;;;;;;;;;;;;;;4.03;100.00;96338.25;10335615;28;97273;-59
2022/09/18 02:42:00;;;;;;;;;;;;;;;3.97;100.00;96342.91;10335794;28;96659;-59
2022/09/18 02:47:07;;;;;;;;;;;;;;;3.97;100.00;96334.34;10364005;28;97176;-59
2022/09/18 02:52:14;;;;;;;;;;;;;;;3.99;100.00;96337.63;10376472;28;96741;-59
2022/09/18 02:57:20;;;;;;;;;;;;;;;3.94;100.00;96334.53;10374879;28;96632;-60
2022/09/18 03:02:25;;;;;;;;;;;;;;;3.92;100.00;96337.22;10375416;28;97444;-59
2022/09/18 03:07:28;;;;;;;;;;;;;;;3.91;100.00;96329.56;10375979;28;96750;-59
2022/09/18 03:12:30;;;;;;;;;;;;;;;3.90;100.00;96327.91;10375273;28;96810;-59
2022/09/18 03:17:34;;;;;;;;;;;;;;;3.97;100.00;96319.63;10362091;28;97061;-59
2022/09/18 03:22:37;;;;;;;;;;;;;;;4.07;100.00;96319.81;10375253;28;96986;-59
2022/09/18 03:27:41;;;;;;;;;;;;;;;4.04;100.00;96314.88;10374969;28;96826;-59
2022/09/18 03:32:45;;;;;;;;;;;;;;;3.93;100.00;96319.94;10340455;28;98192;-59
2022/09/18 03:37:48;;;;;;;;;;;;;;;3.91;100.00;96320.03;10333466;28;96738;-59
2022/09/18 03:42:50;;;;;;;;;;;;;;;3.90;100.00;96325.31;10333303;28;96712;-59
2022/09/18 03:47:54;;;;;;;;;;;;;;;3.79;100.00;96324.28;10369304;28;96982;-59
2022/09/18 03:52:57;;;;;;;;;;;;;;;3.81;100.00;96319.00;10381452;28;96919;-59
2022/09/18 03:57:59;;;;;;;;;;;;;;;3.79;100.00;96326.88;10386157;28;96777;-59
2022/09/18 04:03:03;;;;;;;;;;;;;;;3.77;100.00;96328.72;10338645;28;96926;-58
2022/09/18 04:08:07;;;;;;;;;;;;;;;3.75;100.00;96335.78;10332631;28;96753;-59
2022/09/18 04:13:09;;;;;;;;;;;;;;;3.72;100.00;96332.56;10373156;28;97026;-59
2022/09/18 04:18:13;;;;;;;;;;;;;;;3.70;100.00;96342.19;10333196;28;96755;-59
2022/09/18 04:23:16;;;;;;;;;;;;;;;3.62;100.00;96340.09;10332571;28;96637;-59
2022/09/18 04:28:19;;;;;;;;;;;;;;;3.64;100.00;96343.44;10332283;28;97444;-58
2022/09/18 04:33:22;;;;;;;;;;;;;;;3.61;100.00;96354.78;10331917;28;97216;-59
2022/09/18 04:38:27;;;;;;;;;;;;;;;3.55;100.00;96354.34;10330795;28;97098;-59
2022/09/18 04:43:29;;;;;;;;;;;;;;;3.49;100.00;96344.44;10332356;28;96815;-59
2022/09/18 04:48:33;;;;;;;;;;;;;;;3.53;100.00;96348.47;10372254;28;97007;-59
2022/09/18 04:53:36;;;;;;;;;;;;;;;3.51;100.00;96347.75;10363921;28;96865;-60
2022/09/18 04:58:39;;;;;;;;;;;;;;;3.48;100.00;96347.94;10330944;28;97320;-59
2022/09/18 05:03:43;;;;;;;;;;;;;;;3.32;100.00;96348.94;10330546;28;97122;-59
2022/09/18 05:08:45;;;;;;;;;;;;;;;3.17;100.00;96350.78;10337290;28;96829;-58
2022/09/18 05:13:48;;;;;;;;;;;;;;;3.18;100.00;96356.78;10375937;28;97067;-59
2022/09/18 05:18:52;;;;;;;;;;;;;;;3.15;100.00;96346.63;10338085;28;96920;-59
2022/09/18 05:23:55;;;;;;;;;;;;;;;3.16;100.00;96345.72;10337203;28;96812;-58
2022/09/18 05:28:57;;;;;;;;;;;;;;;3.14;100.00;96357.91;10340175;28;96985;-59
2022/09/18 05:34:01;;;;;;;;;;;;;;;3.10;100.00;96359.84;10378500;28;97253;-59
2022/09/18 05:39:04;;;;;;;;;;;;;;;3.12;100.00;96372.63;10377448;28;97801;-59
2022/09/18 05:44:07;;;;;;;;;;;;;;;3.16;100.00;96368.94;10371071;28;97291;-59
2022/09/18 05:49:10;;;;;;;;;;;;;;;3.15;100.00;96378.44;10369116;28;97169;-59
2022/09/18 05:54:13;;;;;;;;;;;;;;;3.30;100.00;96374.03;10377268;28;96913;-58
2022/09/18 05:59:16;;;;;;;;;;;;;;;3.48;100.00;96373.75;10370661;28;96900;-59
2022/09/18 06:04:20;;;;;;;;;;;;;;;3.65;100.00;96376.06;10370987;28;96739;-59
2022/09/18 06:09:22;;;;;;;;;;;;;;;3.78;100.00;96369.16;10376640;28;98066;-59
2022/09/18 06:14:25;;;;;;;;;;;;;;;3.89;100.00;96372.78;10375142;28;97244;-59
2022/09/18 06:19:29;;;;;;;;;;;;;;;4.05;100.00;96369.97;10369368;28;97209;-59
2022/09/18 06:24:31;;;;;;;;;;;;;;;4.23;100.00;96378.22;10374473;28;97226;-59
2022/09/18 06:29:34;;;;;;;;;;;;;;;4.38;100.00;96382.34;10365821;28;97200;-59
2022/09/18 06:34:38;;;;;;;;;;;;;;;4.43;100.00;96382.88;10370889;28;97105;-59
2022/09/18 06:39:40;;;;;;;;;;;;;;;4.47;100.00;96384.31;10387251;28;96991;-59
2022/09/18 06:44:43;;;;;;;;;;;;;;;4.51;100.00;96385.75;10374970;28;96993;-59
2022/09/18 06:49:47;;;;;;;;;;;;;;;4.62;100.00;96389.34;10375440;28;96860;-58
2022/09/18 06:54:49;;;;;;;;;;;;;;;4.78;100.00;96387.34;10387622;28;96714;-59
2022/09/18 06:59:52;;;;;;;;;;;;;;;4.93;100.00;96388.03;10376750;28;97005;-59
2022/09/18 07:04:56;;;;;;;;;;;;;;;5.00;100.00;96385.81;10375361;28;96773;-59
2022/09/18 07:09:58;;;;;;;;;;;;;;;5.09;100.00;96385.97;10389786;28;97044;-59
2022/09/18 07:15:01;;;;;;;;;;;;;;;5.28;100.00;96393.25;10396478;28;96862;-59
2022/09/18 07:20:05;;;;;;;;;;;;;;;5.44;100.00;96387.75;10374828;28;96812;-59
2022/09/18 07:25:09;;;;;;;;;;;;;;;5.66;100.00;96392.19;10391031;28;97272;-59
2022/09/18 07:30:12;;;;;;;;;;;;;;;5.89;100.00;96394.84;10393051;28;97518;-59
2022/09/18 07:35:16;;;;;;;;;;;;;;;6.00;100.00;96400.06;10394622;28;96740;-60
2022/09/18 07:40:18;;;;;;;;;;;;;;;6.19;100.00;96409.03;10393692;28;96964;-59
2022/09/18 07:45:21;;;;;;;;;;;;;;;6.38;100.00;96406.72;10395531;28;97161;-59
2022/09/18 07:50:25;;;;;;;;;;;;;;;6.57;100.00;96400.09;10390753;28;97114;-59
2022/09/18 07:55:28;;;;;;;;;;;;;;;6.84;100.00;96397.94;10394965;28;96881;-59
2022/09/18 08:00:33;;;;;;;;;;;;;;;7.05;100.00;96404.19;10392608;28;96797;-59
2022/09/18 08:05:37;;;;;;;;;;;;;;;7.25;100.00;96402.59;10394212;27;96724;-59
2022/09/18 08:10:40;;;;;;;;;;;;;;;7.39;100.00;96397.94;10390422;28;96871;-59
2022/09/18 08:15:43;;;;;;;;;;;;;;;7.56;100.00;96393.97;10351950;28;97323;-59
2022/09/18 08:20:47;;;;;;;;;;;;;;;7.94;100.00;96397.81;10332382;28;96803;-59
2022/09/18 08:25:49;;;;;;;;;;;;;;;8.17;100.00;96382.03;10332142;28;97138;-59
2022/09/18 08:30:52;;;;;;;;;;;;;;;8.32;100.00;96387.72;10351039;28;96713;-59
2022/09/18 08:35:56;;;;;;;;;;;;;;;8.48;100.00;96395.03;10373432;28;96866;-59
2022/09/18 08:41:04;;;;;;;;;;;;;;;8.64;100.00;96403.19;10400833;28;97203;-59
2022/09/18 08:46:08;;;;;;;;;;;;;;;8.75;100.00;96404.06;10377008;27;97224;-59
2022/09/18 08:51:16;;;;;;;;;;;;;;;8.90;100.00;96397.53;10337625;28;96969;-59
2022/09/18 08:56:21;;;;;;;;;;;;;;;9.08;100.00;96389.88;10338821;28;96933;-59
2022/09/18 09:01:29;;;;;;;;;;;;;;;9.31;100.00;96398.25;10381779;28;97377;-59
2022/09/18 09:06:44;;;;;;;;;;;;;;;9.54;100.00;96392.81;10379479;28;96698;-59
2022/09/18 09:11:50;;;;;;;;;;;;;;;9.81;100.00;96395.53;10387993;28;97290;-59
2022/09/18 09:16:56;;;;;;;;;;;;;;;9.97;100.00;96399.38;10351041;28;97541;-59
2022/09/18 09:22:04;;;;;;;;;;;;;;;10.13;100.00;96397.03;10338154;28;97070;-59
2022/09/18 09:27:15;;;;;;;;;;;;;;;10.29;100.00;96403.41;10338197;28;97169;-59
2022/09/18 09:32:22;;;;;;;;;;;;;;;10.34;100.00;96411.66;10377067;28;97282;-59
2022/09/18 09:37:34;;;;;;;;;;;;;;;10.46;100.00;96405.31;10369183;28;98410;-58
2022/09/18 09:42:40;;;;;;;;;;;;;;;10.76;100.00;96411.25;10372028;28;96734;-60
2022/09/18 09:47:45;;;;;;;;;;;;;;;10.92;100.00;96408.81;10364632;28;97495;-59
2022/09/18 09:52:50;;;;;;;;;;;;;;;11.05;100.00;96405.03;10382669;28;98490;-59
2022/09/18 09:58:01;;;;;;;;;;;;;;;11.06;100.00;96398.84;10377696;28;97591;-60
2022/09/18 10:03:25;;;;;;;;;;;;;;;11.17;100.00;96394.22;10406190;28;98108;-59
2022/09/18 10:08:33;;;;;;;;;;;;;;;11.34;100.00;96389.19;10385939;28;97148;-59
2022/09/18 10:13:38;;;;;;;;;;;;;;;11.35;100.00;96380.38;10365500;28;96817;-60
2022/09/18 10:18:43;;;;;;;;;;;;;;;11.47;100.00;96378.38;10373698;28;96831;-59
2022/09/18 10:23:50;;;;;;;;;;;;;;;11.54;100.00;96379.41;10385715;28;97418;-59
2022/09/18 10:28:52;;;;;;;;;;;;;;;11.65;100.00;96379.16;10413952;28;97116;-59
2022/09/18 10:33:55;;;;;;;;;;;;;;;11.80;100.00;96370.75;10363706;28;96802;-59
2022/09/18 10:39:00;;;;;;;;;;;;;;;11.93;100.00;96369.41;10385337;28;96979;-60
2022/09/18 10:44:05;;;;;;;;;;;;;;;12.25;100.00;96359.31;10372714;28;97199;-60
2022/09/18 10:49:17;;;;;;;;;;;;;;;12.35;100.00;96356.56;10362423;28;98600;-60
2022/09/18 10:54:23;;;;;;;;;;;;;;;12.48;100.00;96354.34;10374103;28;97247;-60
2022/09/18 10:59:32;;;;;;;;;;;;;;;12.66;100.00;96347.19;10379259;28;97931;-60
2022/09/18 11:04:34;;;;;;;;;;;;;;;12.75;100.00;96345.44;10396412;27;97864;-59
2022/09/18 11:09:39;;;;;;;;;;;;;;;12.66;100.00;96343.75;10374666;28;96920;-60
2022/09/18 11:14:43;;;;;;;;;;;;;;;12.78;100.00;96337.25;10365977;28;96895;-60
2022/09/18 11:19:49;;;;;;;;;;;;;;;12.92;100.00;96335.03;10334266;28;97548;-60
2022/09/18 11:25:06;;;;;;;;;;;;;;;13.07;100.00;96333.44;10356465;28;97174;-59
2022/09/18 11:30:13;;;;;;;;;;;;;;;13.17;100.00;96331.50;10374105;28;96867;-60
2022/09/18 11:35:17;;;;;;;;;;;;;;;13.28;100.00;96326.91;10404748;28;96683;-60
2022/09/18 11:40:24;;;;;;;;;;;;;;;13.46;100.00;96335.44;10415122;28;97344;-60
2022/09/18 11:45:43;;;;;;;;;;;;;;;13.57;100.00;96332.50;10399192;28;97010;-60
2022/09/18 11:50:46;;;;;;;;;;;;;;;13.72;100.00;96326.59;10374412;28;96866;-60
2022/09/18 11:55:55;;;;;;;;;;;;;;;13.75;100.00;96318.38;10385199;28;97468;-60
2022/09/18 12:01:03;;;;;;;;;;;;;;;13.86;100.00;96315.41;10382530;28;98131;-60
2022/09/18 12:06:10;;;;;;;;;;;;;;;14.07;100.00;96304.41;10382938;28;96840;-60
2022/09/18 12:11:19;;;;;;;;;;;;;;;14.27;100.00;96299.56;10372534;28;96813;-59
2022/09/18 12:16:25;;;;;;;;;;;;;;;14.49;100.00;96307.75;10370450;28;97672;-60
2022/09/18 12:21:34;;;;;;;;;;;;;;;14.63;100.00;96301.75;10367284;28;98131;-60
2022/09/18 12:26:42;;;;;;;;;;;;;;;14.79;100.00;96302.69;10367589;28;98368;-60
2022/09/18 12:31:51;;;;;;;;;;;;;;;14.88;100.00;96293.75;10369902;28;96843;-60
2022/09/18 12:37:04;;;;;;;;;;;;;;;14.74;100.00;96287.41;10389333;28;97318;-60
2022/09/18 12:42:15;;;;;;;;;;;;;;;14.63;100.00;96278.09;10414990;28;97376;-60
2022/09/18 12:47:25;;;;;;;;;;;;;;;14.69;100.00;96280.03;10382317;28;96778;-59
2022/09/18 12:52:35;;;;;;;;;;;;;;;15.02;100.00;96284.28;10373018;28;97218;-60
2022/09/18 12:57:46;;;;;;;;;;;;;;;15.08;100.00;96279.16;10403571;28;96979;-60
2022/09/18 13:02:52;;;;;;;;;;;;;;;15.22;100.00;96279.41;10383499;27;96961;-59
2022/09/18 13:08:00;;;;;;;;;;;;;;;15.51;100.00;96268.13;10407595;28;97206;-60
2022/09/18 13:13:05;;;;;;;;;;;;;;;15.65;100.00;96256.84;10391669;27;97379;-59
2022/09/18 13:18:17;;;;;;;;;;;;;;;15.72;100.00;96249.06;10373934;28;97459;-59
2022/09/18 13:23:22;;;;;;;;;;;;;;;15.88;100.00;96250.69;10330558;28;97092;-59
2022/09/18 13:28:27;;;;;;;;;;;;;;;16.01;100.00;96237.69;10406283;27;97656;-60
2022/09/18 13:33:30;;;;;;;;;;;;;;;16.33;100.00;96224.31;10337683;27;96962;-59
2022/09/18 13:38:33;;;;;;;;;;;;;;;16.90;100.00;96231.50;10337586;28;96762;-59
2022/09/18 13:43:45;;;;;;;;;;;;;;;17.21;100.00;96226.91;10337987;28;96754;-60
2022/09/18 13:48:54;;;;;;;;;;;;;;;17.10;100.00;96210.56;10336928;28;97371;-60
2022/09/18 13:54:15;;;;;;;;;;;;;;;17.33;100.00;96214.81;10336987;28;96666;-60
2022/09/18 13:59:22;;;;;;;;;;;;;;;17.59;100.00;96201.00;10335359;28;96953;-60
2022/09/18 14:04:45;;;;;;;;;;;;;;;17.59;100.00;96202.84;10336383;28;96887;-60
2022/09/18 14:09:51;;;;;;;;;;;;;;;17.74;100.00;96204.34;10349120;28;96816;-60
2022/09/18 14:15:00;;;;;;;;;;;;;;;18.35;100.00;96202.88;10366273;28;96718;-60
2022/09/18 14:20:07;;;;;;;;;;;;;;;18.66;100.00;96198.91;10335835;28;97616;-59
2022/09/18 14:25:11;;;;;;;;;;;;;;;18.53;100.00;96193.56;10336155;28;97089;-59
2022/09/18 14:30:19;;;;;;;;;;;;;;;18.50;100.00;96192.16;10335463;28;97039;-59
2022/09/18 14:35:28;;;;;;;;;;;;;;;18.79;100.00;96188.34;10336217;28;96701;-59
2022/09/18 14:40:31;;;;;;;;;;;;;;;19.17;100.00;96184.38;10335166;28;96767;-59
2022/09/18 14:45:35;;;;;;;;;;;;;;;19.24;100.00;96179.88;10351160;28;97104;-62
2022/09/18 14:50:37;;;;;;;;;;;;;;;18.99;100.00;96182.31;10375292;28;96655;-60
2022/09/18 14:55:41;;;;;;;;;;;;;;;19.06;100.00;96168.06;10376484;28;97156;-59
2022/09/18 15:00:47;;;;;;;;;;;;;;;19.05;100.00;96171.75;10375019;28;97154;-59
2022/09/18 15:05:51;;;;;;;;;;;;;;;19.10;100.00;96163.16;10375901;28;96859;-59
2022/09/18 15:10:56;;;;;;;;;;;;;;;19.26;100.00;96161.94;10375536;28;96721;-60
2022/09/18 15:16:03;;;;;;;;;;;;;;;19.22;100.00;96158.91;10355395;28;97254;-60
2022/09/18 15:21:05;;;;;;;;;;;;;;;19.54;100.00;96159.09;10334640;28;97526;-59
2022/09/18 15:26:11;;;;;;;;;;;;;;;19.98;100.00;96144.31;10335491;28;97329;-59
2022/09/18 15:31:17;;;;;;;;;;;;;;;20.07;100.00;96147.56;10355641;28;97311;-60
2022/09/18 15:36:23;;;;;;;;;;;;;;;20.27;99.32;96151.97;10375760;28;96818;-60
2022/09/18 15:41:36;;;;;;;;;;;;;;;20.55;97.37;96149.00;10338008;28;96864;-60
2022/09/18 15:46:40;;;;;;;;;;;;;;;20.77;96.33;96156.63;10333198;28;97420;-60
2022/09/18 15:51:43;;;;;;;;;;;;;;;20.80;96.49;96157.03;10332992;28;96850;-59
2022/09/18 15:56:49;;;;;;;;;;;;;;;20.83;96.89;96153.13;10333354;28;96742;-60
2022/09/18 16:01:53;;;;;;;;;;;;;;;20.86;96.30;96150.03;10360039;28;96888;-60
2022/09/18 16:06:59;;;;;;;;;;;;;;;21.06;94.92;96149.91;10375395;28;96712;-59
2022/09/18 16:12:02;;;;;;;;;;;;;;;21.00;94.60;96140.97;10374363;28;96851;-60
2022/09/18 16:17:23;;;;;;;;;;;;;;;21.00;94.82;96140.97;10371261;28;97556;-59
2022/09/18 16:22:29;;;;;;;;;;;;;;;21.08;94.63;96142.53;10339515;28;96824;-60
2022/09/18 16:27:33;;;;;;;;;;;;;;;21.31;93.61;96141.91;10332853;28;96642;-60
2022/09/18 16:32:36;;;;;;;;;;;;;;;21.65;92.30;96137.16;10367888;28;96720;-61
2022/09/18 16:37:40;;;;;;;;;;;;;;;21.69;91.83;96141.00;10342478;28;98710;-60
2022/09/18 16:42:42;;;;;;;;;;;;;;;21.64;92.61;96140.84;10370042;28;96697;-60
2022/09/18 16:47:48;;;;;;;;;;;;;;;21.11;95.44;96147.41;10380163;28;96811;-62
2022/09/18 16:52:53;;;;;;;;;;;;;;;20.03;100.00;96143.72;10361327;28;96912;-60
2022/09/18 16:58:02;;;;;;;;;;;;;;;18.98;100.00;96148.91;10370258;28;96673;-59
2022/09/18 17:03:05;;;;;;;;;;;;;;;17.99;100.00;96144.97;10393243;27;96924;-60
2022/09/18 17:08:10;;;;;;;;;;;;;;;17.19;100.00;96155.81;10397970;27;97494;-60
2022/09/18 17:13:12;;;;;;;;;;;;;;;16.59;100.00;96156.06;10376424;28;96867;-60
2022/09/18 17:18:15;;;;;;;;;;;;;;;16.28;100.00;96160.81;10381338;28;96710;-61
2022/09/18 17:23:19;;;;;;;;;;;;;;;15.90;100.00;96158.31;10376428;28;96748;-60
2022/09/18 17:28:21;;;;;;;;;;;;;;;15.62;100.00;96159.78;10395013;28;96838;-60
2022/09/18 17:33:24;;;;;;;;;;;;;;;15.34;100.00;96161.34;10397545;27;97534;-60
2022/09/18 17:38:28;;;;;;;;;;;;;;;15.04;100.00;96156.00;10384243;28;98029;-60
2022/09/18 17:43:30;;;;;;;;;;;;;;;14.81;100.00;96151.59;10378674;28;96750;-60
2022/09/18 17:48:33;;;;;;;;;;;;;;;14.63;100.00;96159.78;10338316;28;96851;-60
2022/09/18 17:53:37;;;;;;;;;;;;;;;14.56;100.00;96156.22;10379133;28;96848;-60
2022/09/18 17:58:42;;;;;;;;;;;;;;;14.39;100.00;96157.31;10419470;28;97111;-60
2022/09/18 18:03:45;;;;;;;;;;;;;;;14.27;100.00;96165.56;10378722;28;97216;-60
2022/09/18 18:08:50;;;;;;;;;;;;;;;14.11;100.00;96170.91;10377910;28;96982;-60
2022/09/18 18:13:53;;;;;;;;;;;;;;;13.91;100.00;96171.28;10375539;28;96721;-60
2022/09/18 18:18:57;;;;;;;;;;;;;;;13.79;100.00;96180.53;10368677;28;96646;-60
2022/09/18 18:24:02;;;;;;;;;;;;;;;13.57;100.00;96185.53;10345931;28;96862;-60
2022/09/18 18:29:06;;;;;;;;;;;;;;;13.28;100.00;96190.50;10414100;27;98489;-60
2022/09/18 18:34:10;;;;;;;;;;;;;;;13.12;100.00;96197.38;10377310;28;96869;-60
2022/09/18 18:39:14;;;;;;;;;;;;;;;13.04;100.00;96194.75;10374486;28;97540;-60
2022/09/18 18:44:17;;;;;;;;;;;;;;;13.00;100.00;96203.94;10372244;28;96641;-60
2022/09/18 18:49:20;;;;;;;;;;;;;;;12.78;100.00;96214.03;10335659;28;96906;-60
2022/09/18 18:54:24;;;;;;;;;;;;;;;12.42;100.00;96216.94;10334850;28;97180;-60
2022/09/18 18:59:26;;;;;;;;;;;;;;;12.23;100.00;96222.41;10364225;28;97311;-60
2022/09/18 19:04:29;;;;;;;;;;;;;;;11.81;100.00;96229.28;10363735;28;97059;-59
2022/09/18 19:09:32;;;;;;;;;;;;;;;11.44;100.00;96238.22;10378045;28;96771;-60
2022/09/18 19:14:36;;;;;;;;;;;;;;;11.31;100.00;96251.72;10377669;28;97247;-60
2022/09/18 19:19:39;;;;;;;;;;;;;;;11.32;100.00;96258.56;10388703;28;96825;-61
2022/09/18 19:24:43;;;;;;;;;;;;;;;11.36;100.00;96267.75;10393357;28;97091;-59
2022/09/18 19:29:48;;;;;;;;;;;;;;;11.34;100.00;96264.47;10385022;27;97949;-60
2022/09/18 19:34:51;;;;;;;;;;;;;;;11.28;100.00;96267.66;10398472;27;96972;-59
2022/09/18 19:39:55;;;;;;;;;;;;;;;11.12;100.00;96270.13;10390470;28;97019;-60
2022/09/18 19:45:00;;;;;;;;;;;;;;;10.82;100.00;96271.34;10390208;28;96742;-60
2022/09/18 19:50:05;;;;;;;;;;;;;;;10.56;100.00;96265.00;10384341;28;98252;-60
2022/09/18 19:55:13;;;;;;;;;;;;;;;10.49;100.00;96263.16;10373005;28;96918;-60
2022/09/18 20:00:16;;;;;;;;;;;;;;;10.44;100.00;96266.19;10380311;28;96992;-60
2022/09/18 20:05:19;;;;;;;;;;;;;;;10.11;100.00;96271.03;10371037;27;97124;-60
2022/09/18 20:10:23;;;;;;;;;;;;;;;9.99;100.00;96272.16;10385638;27;98254;-60
2022/09/18 20:15:25;;;;;;;;;;;;;;;9.94;100.00;96274.38;10392122;28;97177;-60
2022/09/18 20:20:28;;;;;;;;;;;;;;;9.82;100.00;96269.34;10392652;27;97386;-60
2022/09/18 20:25:32;;;;;;;;;;;;;;;9.78;100.00;96262.75;10405059;27;96774;-59
2022/09/18 20:30:34;;;;;;;;;;;;;;;9.74;100.00;96264.03;10383373;27;96698;-60
2022/09/18 20:35:37;;;;;;;;;;;;;;;9.66;100.00;96256.06;10331120;28;96658;-60
2022/09/18 20:40:41;;;;;;;;;;;;;;;9.31;100.00;96262.69;10412145;27;96921;-60
2022/09/18 20:45:44;;;;;;;;;;;;;;;9.20;100.00;96262.88;10383554;28;98606;-60
2022/09/18 20:50:48;;;;;;;;;;;;;;;9.12;100.00;96258.31;10384597;28;97117;-60
2022/09/18 20:55:52;;;;;;;;;;;;;;;8.89;100.00;96263.00;10406385;27;96928;-60
2022/09/18 21:00:54;;;;;;;;;;;;;;;8.93;100.00;96259.16;10378893;28;96835;-60
2022/09/18 21:06:01;;;;;;;;;;;;;;;8.95;100.00;96256.41;10385926;28;96814;-60
2022/09/18 21:11:26;;;;;;;;;;;;;;;8.87;100.00;96267.53;10389661;28;97495;-59
2022/09/18 21:16:29;;;;;;;;;;;;;;;8.51;100.00;96262.00;10370071;28;97307;-60
2022/09/18 21:21:33;;;;;;;;;;;;;;;8.30;100.00;96268.09;10356462;28;97327;-60
2022/09/18 21:26:38;;;;;;;;;;;;;;;8.26;100.00;96271.13;10394218;28;96806;-60
2022/09/18 21:31:42;;;;;;;;;;;;;;;8.37;100.00;96272.78;10402753;28;97012;-60
2022/09/18 21:36:44;;;;;;;;;;;;;;;8.24;100.00;96273.88;10404151;27;96773;-60
2022/09/18 21:41:52;;;;;;;;;;;;;;;8.20;100.00;96267.25;10375874;28;98868;-60
2022/09/18 21:46:55;;;;;;;;;;;;;;;8.23;100.00;96261.78;10376458;28;96850;-60
2022/09/18 21:51:59;;;;;;;;;;;;;;;8.20;100.00;96267.25;10375912;28;97004;-60
2022/09/18 21:57:03;;;;;;;;;;;;;;;8.03;100.00;96265.28;10398364;28;97326;-60
2022/09/18 22:02:08;;;;;;;;;;;;;;;7.98;100.00;96268.28;10419554;28;97275;-60
2022/09/18 22:07:11;;;;;;;;;;;;;;;7.92;100.00;96266.19;10380005;28;96775;-60
2022/09/18 22:12:14;;;;;;;;;;;;;;;7.95;100.00;96268.53;10397258;28;97120;-60
2022/09/18 22:17:17;;;;;;;;;;;;;;;7.88;100.00;96263.03;10398721;28;96796;-59
2022/09/18 22:22:20;;;;;;;;;;;;;;;7.81;100.00;96272.31;10387980;27;96876;-59
2022/09/18 22:27:24;;;;;;;;;;;;;;;7.62;100.00;96273.03;10376127;28;97017;-59
2022/09/18 22:32:27;;;;;;;;;;;;;;;7.58;100.00;96275.06;10388497;28;97146;-60
2022/09/18 22:37:29;;;;;;;;;;;;;;;7.62;100.00;96273.03;10393496;28;98605;-59
2022/09/18 22:42:33;;;;;;;;;;;;;;;7.45;100.00;96274.44;10393422;28;97020;-60
2022/09/18 22:47:36;;;;;;;;;;;;;;;7.42;100.00;96277.28;10394920;28;96687;-60
2022/09/18 22:52:38;;;;;;;;;;;;;;;7.27;100.00;96278.56;10392286;28;96753;-60
2022/09/18 22:57:42;;;;;;;;;;;;;;;7.24;100.00;96279.66;10393176;28;97197;-60
2022/09/18 23:02:45;;;;;;;;;;;;;;;7.14;100.00;96276.97;10393923;27;97293;-60
2022/09/18 23:07:47;;;;;;;;;;;;;;;7.15;100.00;96286.41;10378635;28;97492;-60
2022/09/18 23:12:51;;;;;;;;;;;;;;;7.01;100.00;96278.94;10378849;28;97313;-60
2022/09/18 23:17:54;;;;;;;;;;;;;;;6.80;100.00;96276.28;10389093;28;96780;-60
2022/09/18 23:22:57;;;;;;;;;;;;;;;6.72;100.00;96279.47;10393967;27;97158;-60
2022/09/18 23:28:01;;;;;;;;;;;;;;;6.65;100.00;96278.31;10389514;27;97405;-59
2022/09/18 23:33:03;;;;;;;;;;;;;;;6.56;100.00;96277.28;10389793;28;98378;-60
2022/09/18 23:38:06;;;;;;;;;;;;;;;6.53;100.00;96281.88;10393848;28;97764;-60
2022/09/18 23:43:10;;;;;;;;;;;;;;;6.57;100.00;96280.69;10390791;28;97063;-60
2022/09/18 23:48:13;;;;;;;;;;;;;;;6.57;100.00;96280.69;10392895;28;96812;-60
2022/09/18 23:53:17;;;;;;;;;;;;;;;6.59;100.00;96282.22;10391200;28;97084;-60
2022/09/18 23:58:21;;;;;;;;;;;;;;;6.67;100.00;96292.00;10393950;28;97439;-60
